Time;durP1;ratioP1;P1;durP2;ratioP2;P2;SDS_P1;SDS_P2;PMS_P1;PMS_P2;Temp;Humidity;BMP_temperature;BMP_pressure;BME280_temperature;BME280_humidity;BME280_pressure;Samples;Min_cycle;Max_cycle;Signal;HPM_P1;HPM_P2
2022/03/14 00:01:36;;;;;;;5.20;1.60;;;;;;;;;;5068832;28;20226;-19
2022/03/14 00:04:03;;;;;;;8.23;1.70;;;;;;;;;;5079083;28;20229;-19
2022/03/14 00:06:31;;;;;;;6.60;1.63;;;;;;;;;;5081161;28;20228;-19
2022/03/14 00:08:58;;;;;;;3.80;1.50;;;;;;;;;;5068501;28;20921;-19
2022/03/14 00:11:27;;;;;;;14.50;1.75;;;;;;;;;;5074966;28;20413;-19
2022/03/14 00:13:55;;;;;;;11.23;1.85;;;;;;;;;;5071577;28;20245;-19
2022/03/14 00:16:23;;;;;;;14.35;1.92;;;;;;;;;;5071832;28;20229;-19
2022/03/14 00:18:51;;;;;;;6.82;1.60;;;;;;;;;;5071974;28;20238;-19
2022/03/14 00:21:20;;;;;;;10.63;1.80;;;;;;;;;;5082913;28;20748;-19
2022/03/14 00:23:47;;;;;;;6.47;2.08;;;;;;;;;;5073467;28;20243;-20
2022/03/14 00:26:14;;;;;;;9.40;1.75;;;;;;;;;;5072848;28;20226;-20
2022/03/14 00:28:42;;;;;;;4.85;1.50;;;;;;;;;;5072868;28;20228;-19
2022/03/14 00:31:09;;;;;;;5.65;1.70;;;;;;;;;;5072721;28;20616;-19
2022/03/14 00:33:39;;;;;;;6.03;1.30;;;;;;;;;;5080759;28;20233;-19
2022/03/14 00:36:08;;;;;;;8.75;1.90;;;;;;;;;;5092189;28;20731;-19
2022/03/14 00:38:35;;;;;;;6.53;1.52;;;;;;;;;;5072480;28;20248;-19
2022/03/14 00:41:02;;;;;;;3.58;1.40;;;;;;;;;;5072534;28;20209;-19
2022/03/14 00:43:30;;;;;;;3.38;1.50;;;;;;;;;;5071709;28;20236;-19
2022/03/14 00:45:57;;;;;;;3.50;1.50;;;;;;;;;;5072347;28;20218;-19
2022/03/14 00:48:24;;;;;;;4.45;1.42;;;;;;;;;;5072270;28;20241;-19
2022/03/14 00:50:51;;;;;;;4.05;1.48;;;;;;;;;;5072246;28;20235;-19
2022/03/14 00:53:19;;;;;;;5.20;1.60;;;;;;;;;;5072771;28;20237;-19
2022/03/14 00:55:46;;;;;;;4.07;1.42;;;;;;;;;;5071670;28;20328;-19
2022/03/14 00:58:13;;;;;;;8.13;1.55;;;;;;;;;;5072134;28;20732;-19
2022/03/14 01:00:40;;;;;;;5.68;1.55;;;;;;;;;;5072414;28;20703;-19
2022/03/14 01:03:07;;;;;;;3.88;1.55;;;;;;;;;;5075314;28;20271;-19
2022/03/14 01:05:34;;;;;;;4.35;1.50;;;;;;;;;;5087669;28;20275;-19
2022/03/14 01:08:02;;;;;;;3.80;1.40;;;;;;;;;;5071775;28;20669;-19
2022/03/14 01:10:29;;;;;;;4.20;1.15;;;;;;;;;;5072059;28;20300;-19
2022/03/14 01:12:57;;;;;;;7.38;1.40;;;;;;;;;;5073332;28;20236;-19
2022/03/14 01:15:24;;;;;;;1.58;1.30;;;;;;;;;;5089125;28;20229;-20
2022/03/14 01:17:51;;;;;;;4.88;1.38;;;;;;;;;;5071705;28;20240;-19
2022/03/14 01:20:19;;;;;;;6.95;1.40;;;;;;;;;;5072096;28;20221;-19
2022/03/14 01:22:46;;;;;;;5.07;1.35;;;;;;;;;;5071483;28;20233;-19
2022/03/14 01:25:13;;;;;;;2.22;1.20;;;;;;;;;;5091908;28;20999;-19
2022/03/14 01:27:40;;;;;;;2.38;1.30;;;;;;;;;;5086629;28;20280;-19
2022/03/14 01:30:07;;;;;;;1.58;1.10;;;;;;;;;;5071911;28;20314;-19
2022/03/14 01:32:34;;;;;;;3.78;1.30;;;;;;;;;;5069770;28;20229;-19
2022/03/14 01:35:01;;;;;;;1.77;1.00;;;;;;;;;;5079389;28;20229;-19
2022/03/14 01:37:28;;;;;;;2.47;1.33;;;;;;;;;;5069918;28;20263;-19
2022/03/14 01:39:55;;;;;;;2.50;1.17;;;;;;;;;;5060750;28;20276;-19
2022/03/14 01:42:22;;;;;;;3.60;1.35;;;;;;;;;;5069945;28;20239;-19
2022/03/14 01:44:49;;;;;;;1.30;1.00;;;;;;;;;;5071042;28;20861;-19
2022/03/14 01:47:16;;;;;;;5.60;1.20;;;;;;;;;;5070871;28;20225;-19
2022/03/14 01:49:43;;;;;;;1.95;1.15;;;;;;;;;;5071092;28;20221;-18
2022/03/14 01:52:10;;;;;;;3.47;1.40;;;;;;;;;;5070264;28;20253;-19
2022/03/14 01:54:37;;;;;;;5.30;1.30;;;;;;;;;;5077428;28;20326;-18
2022/03/14 01:57:04;;;;;;;4.50;1.30;;;;;;;;;;5089997;28;20240;-18
2022/03/14 01:59:31;;;;;;;2.50;1.55;;;;;;;;;;5090625;28;20790;-18
2022/03/14 02:01:59;;;;;;;1.23;0.90;;;;;;;;;;5074225;28;20225;-19
2022/03/14 02:04:26;;;;;;;3.13;1.30;;;;;;;;;;5059584;28;20261;-19
2022/03/14 02:06:53;;;;;;;1.63;1.25;;;;;;;;;;5050248;28;20437;-19
2022/03/14 02:09:20;;;;;;;3.15;1.10;;;;;;;;;;5050787;28;20249;-19
2022/03/14 02:11:48;;;;;;;1.63;1.20;;;;;;;;;;5051035;28;20249;-19
2022/03/14 02:14:14;;;;;;;2.50;1.20;;;;;;;;;;5061505;28;20224;-20
2022/03/14 02:16:41;;;;;;;2.85;1.20;;;;;;;;;;5070978;28;20233;-19
2022/03/14 02:19:08;;;;;;;3.55;1.35;;;;;;;;;;5071099;28;20233;-19
2022/03/14 02:21:35;;;;;;;3.08;1.00;;;;;;;;;;5070557;28;20225;-19
2022/03/14 02:24:02;;;;;;;2.38;1.45;;;;;;;;;;5078389;28;20251;-19
2022/03/14 02:26:29;;;;;;;3.08;1.30;;;;;;;;;;5079869;28;20244;-19
2022/03/14 02:28:58;;;;;;;3.17;1.50;;;;;;;;;;5074796;28;20210;-19
2022/03/14 02:31:25;;;;;;;1.90;1.17;;;;;;;;;;5074476;28;20233;-19
2022/03/14 02:33:52;;;;;;;2.13;1.23;;;;;;;;;;5074261;28;20284;-18
2022/03/14 02:36:19;;;;;;;2.28;1.30;;;;;;;;;;5073908;28;20231;-18
2022/03/14 02:38:46;;;;;;;1.83;1.20;;;;;;;;;;5074174;28;20236;-19
2022/03/14 02:41:13;;;;;;;1.25;1.05;;;;;;;;;;5074776;28;20236;-19
2022/03/14 02:43:40;;;;;;;1.77;1.15;;;;;;;;;;5092599;28;20228;-19
2022/03/14 02:46:08;;;;;;;2.35;1.30;;;;;;;;;;5085261;28;20324;-19
2022/03/14 02:48:36;;;;;;;2.42;1.20;;;;;;;;;;5073637;28;20251;-19
2022/03/14 02:51:03;;;;;;;3.35;1.13;;;;;;;;;;5074236;28;20229;-19
2022/03/14 02:53:30;;;;;;;2.40;1.17;;;;;;;;;;5090697;28;20235;-19
2022/03/14 02:55:57;;;;;;;1.65;1.10;;;;;;;;;;5094760;28;20232;-19
2022/03/14 02:58:26;;;;;;;1.90;1.23;;;;;;;;;;5091324;28;20221;-19
2022/03/14 03:00:56;;;;;;;3.63;1.10;;;;;;;;;;5074475;28;20229;-18
2022/03/14 03:03:24;;;;;;;2.72;1.13;;;;;;;;;;5074101;28;21054;-19
2022/03/14 03:05:51;;;;;;;1.30;1.00;;;;;;;;;;5074111;28;20240;-19
2022/03/14 03:08:18;;;;;;;1.38;1.10;;;;;;;;;;5073849;28;20216;-19
2022/03/14 03:10:45;;;;;;;1.08;0.82;;;;;;;;;;5079818;28;20712;-19
2022/03/14 03:13:12;;;;;;;1.35;1.00;;;;;;;;;;5094079;28;20224;-19
2022/03/14 03:15:39;;;;;;;1.38;1.00;;;;;;;;;;5089205;28;20252;-19
2022/03/14 03:18:06;;;;;;;2.15;1.00;;;;;;;;;;5073582;28;20233;-19
2022/03/14 03:20:33;;;;;;;2.50;1.25;;;;;;;;;;5090820;22;20281;-19
2022/03/14 03:23:00;;;;;;;1.20;1.08;;;;;;;;;;5059945;28;20237;-19
2022/03/14 03:25:27;;;;;;;3.25;1.15;;;;;;;;;;5071662;28;20228;-19
2022/03/14 03:27:54;;;;;;;1.50;1.05;;;;;;;;;;5073606;28;20260;-20
2022/03/14 03:30:23;;;;;;;1.08;0.90;;;;;;;;;;5067909;28;20696;-19
2022/03/14 03:32:49;;;;;;;1.15;1.00;;;;;;;;;;5068017;28;20226;-19
2022/03/14 03:35:16;;;;;;;1.90;0.98;;;;;;;;;;5073588;28;20214;-19
2022/03/14 03:37:43;;;;;;;1.38;1.08;;;;;;;;;;5071774;28;20241;-19
2022/03/14 03:40:11;;;;;;;2.28;1.27;;;;;;;;;;5072126;28;21424;-19
2022/03/14 03:42:37;;;;;;;2.28;1.08;;;;;;;;;;5066169;28;20243;-19
2022/03/14 03:45:05;;;;;;;1.95;1.23;;;;;;;;;;5050845;28;20230;-19
2022/03/14 03:47:32;;;;;;;1.95;1.00;;;;;;;;;;5072108;28;20236;-19
2022/03/14 03:49:59;;;;;;;1.02;0.90;;;;;;;;;;5070850;28;20213;-19
2022/03/14 03:52:26;;;;;;;1.77;1.20;;;;;;;;;;5071890;28;20218;-19
2022/03/14 03:54:53;;;;;;;1.63;1.13;;;;;;;;;;5067439;28;20241;-20
2022/03/14 03:57:20;;;;;;;1.35;1.20;;;;;;;;;;5072136;28;20316;-19
2022/03/14 03:59:47;;;;;;;1.23;1.10;;;;;;;;;;5072548;28;20233;-19
2022/03/14 04:02:18;;;;;;;1.10;1.00;;;;;;;;;;5073143;28;20252;-20
2022/03/14 04:04:46;;;;;;;2.17;1.27;;;;;;;;;;5067460;28;20964;-19
2022/03/14 04:07:19;;;;;;;1.23;1.13;;;;;;;;;;5052993;28;20969;-19
2022/03/14 04:09:47;;;;;;;1.00;0.88;;;;;;;;;;5052413;28;20210;-19
2022/03/14 04:12:13;;;;;;;2.35;1.30;;;;;;;;;;5052724;28;20226;-19
2022/03/14 04:14:41;;;;;;;2.45;1.30;;;;;;;;;;5052810;28;20240;-19
2022/03/14 04:17:08;;;;;;;1.20;1.08;;;;;;;;;;5069690;28;20287;-20
2022/03/14 04:19:41;;;;;;;1.10;1.00;;;;;;;;;;5056651;28;20613;-19
2022/03/14 04:22:08;;;;;;;2.42;1.20;;;;;;;;;;5051875;28;20241;-19
2022/03/14 04:24:37;;;;;;;1.23;1.13;;;;;;;;;;5052150;28;20230;-19
2022/03/14 04:27:04;;;;;;;1.67;1.38;;;;;;;;;;5059850;28;20221;-19
2022/03/14 04:29:31;;;;;;;1.38;1.08;;;;;;;;;;5072644;28;20225;-20
2022/03/14 04:31:58;;;;;;;1.30;0.95;;;;;;;;;;5056260;28;20225;-19
2022/03/14 04:34:25;;;;;;;1.33;1.23;;;;;;;;;;5052664;28;20223;-19
2022/03/14 04:36:52;;;;;;;2.03;1.15;;;;;;;;;;5052423;28;20594;-19
2022/03/14 04:39:20;;;;;;;1.05;0.95;;;;;;;;;;5070291;28;20233;-19
2022/03/14 04:41:47;;;;;;;1.70;1.30;;;;;;;;;;5072365;28;20225;-19
2022/03/14 04:44:14;;;;;;;2.00;1.40;;;;;;;;;;5072067;28;20222;-19
2022/03/14 04:46:41;;;;;;;1.70;1.25;;;;;;;;;;5058874;28;20234;-19
2022/03/14 04:49:08;;;;;;;2.00;1.20;;;;;;;;;;5059673;28;20229;-19
2022/03/14 04:51:36;;;;;;;2.53;1.33;;;;;;;;;;5072286;28;20225;-19
2022/03/14 04:54:03;;;;;;;1.60;1.50;;;;;;;;;;5071830;28;20260;-19
2022/03/14 04:56:30;;;;;;;1.10;1.00;;;;;;;;;;5072559;28;20206;-19
2022/03/14 04:58:57;;;;;;;2.22;1.10;;;;;;;;;;5072708;28;20233;-19
2022/03/14 05:01:24;;;;;;;1.25;1.13;;;;;;;;;;5071529;28;20236;-20
2022/03/14 05:03:52;;;;;;;8.82;1.50;;;;;;;;;;5072590;28;20316;-19
2022/03/14 05:06:19;;;;;;;1.58;1.42;;;;;;;;;;5071096;28;20743;-19
2022/03/14 05:08:46;;;;;;;1.63;1.25;;;;;;;;;;5051933;28;20709;-18
2022/03/14 05:11:14;;;;;;;2.72;1.35;;;;;;;;;;5069048;28;20224;-19
2022/03/14 05:13:41;;;;;;;4.72;1.45;;;;;;;;;;5091807;28;20232;-18
2022/03/14 05:16:08;;;;;;;1.63;1.38;;;;;;;;;;5074066;28;20971;-19
2022/03/14 05:18:35;;;;;;;2.10;1.30;;;;;;;;;;5055489;28;20237;-19
2022/03/14 05:21:02;;;;;;;1.65;1.33;;;;;;;;;;5071281;28;20967;-19
2022/03/14 05:23:29;;;;;;;1.73;1.30;;;;;;;;;;5070937;28;20229;-19
2022/03/14 05:25:56;;;;;;;1.80;1.42;;;;;;;;;;5071995;28;20216;-19
2022/03/14 05:28:24;;;;;;;7.60;1.40;;;;;;;;;;5071819;28;20221;-19
2022/03/14 05:30:51;;;;;;;5.22;1.30;;;;;;;;;;5071103;28;20217;-19
2022/03/14 05:33:18;;;;;;;2.58;1.40;;;;;;;;;;5071456;28;20242;-19
2022/03/14 05:35:45;;;;;;;2.15;1.30;;;;;;;;;;5071681;28;20225;-19
2022/03/14 05:38:12;;;;;;;1.33;1.10;;;;;;;;;;5071322;28;20238;-19
2022/03/14 05:40:39;;;;;;;1.65;1.20;;;;;;;;;;5071605;28;20225;-19
2022/03/14 05:43:07;;;;;;;1.70;1.40;;;;;;;;;;5070529;28;20233;-19
2022/03/14 05:45:34;;;;;;;1.20;1.10;;;;;;;;;;5071330;28;20231;-19
2022/03/14 05:48:01;;;;;;;1.45;1.35;;;;;;;;;;5071390;28;20236;-19
2022/03/14 05:50:28;;;;;;;1.60;1.25;;;;;;;;;;5071536;28;20224;-19
2022/03/14 05:52:55;;;;;;;1.48;1.38;;;;;;;;;;5071569;28;20230;-19
2022/03/14 05:55:22;;;;;;;1.50;1.30;;;;;;;;;;5067961;28;20222;-19
2022/03/14 05:57:49;;;;;;;1.95;1.30;;;;;;;;;;5071369;28;20213;-19
2022/03/14 06:00:24;;;;;;;1.63;1.27;;;;;;;;;;5069104;28;20230;-19
2022/03/14 06:02:54;;;;;;;4.82;1.55;;;;;;;;;;5072095;28;20235;-20
2022/03/14 06:05:21;;;;;;;1.48;1.38;;;;;;;;;;5074244;28;20213;-18
2022/03/14 06:07:48;;;;;;;1.70;1.60;;;;;;;;;;5074172;28;20715;-19
2022/03/14 06:10:15;;;;;;;3.42;1.70;;;;;;;;;;5074673;28;20225;-19
2022/03/14 06:12:42;;;;;;;2.38;1.60;;;;;;;;;;5074989;28;20223;-19
2022/03/14 06:15:12;;;;;;;1.55;1.45;;;;;;;;;;5073812;28;20225;-19
2022/03/14 06:17:42;;;;;;;1.80;1.70;;;;;;;;;;5066988;28;20236;-19
2022/03/14 06:20:09;;;;;;;2.13;1.48;;;;;;;;;;5074033;28;20287;-19
2022/03/14 06:22:36;;;;;;;3.20;1.98;;;;;;;;;;5073935;28;20252;-19
2022/03/14 06:25:03;;;;;;;2.20;2.00;;;;;;;;;;5074571;28;21524;-19
2022/03/14 06:27:30;;;;;;;2.22;1.95;;;;;;;;;;5073671;28;20750;-19
2022/03/14 06:29:57;;;;;;;1.92;1.70;;;;;;;;;;5074776;28;20726;-19
2022/03/14 06:32:24;;;;;;;1.80;1.70;;;;;;;;;;5054503;28;20957;-19
2022/03/14 06:34:51;;;;;;;1.85;1.45;;;;;;;;;;5054496;28;20237;-19
2022/03/14 06:37:18;;;;;;;2.30;1.60;;;;;;;;;;5054425;28;20210;-20
2022/03/14 06:39:45;;;;;;;2.10;1.70;;;;;;;;;;5067372;28;20241;-19
2022/03/14 06:42:14;;;;;;;3.17;2.10;;;;;;;;;;5073802;28;20236;-19
2022/03/14 06:44:41;;;;;;;1.92;1.73;;;;;;;;;;5074218;28;20700;-19
2022/03/14 06:47:08;;;;;;;1.98;1.77;;;;;;;;;;5074316;28;20220;-19
2022/03/14 06:49:36;;;;;;;1.80;1.50;;;;;;;;;;5073683;28;20707;-19
2022/03/14 06:52:03;;;;;;;1.75;1.42;;;;;;;;;;5073819;28;20229;-19
2022/03/14 06:54:30;;;;;;;1.50;1.38;;;;;;;;;;5073641;28;20234;-19
2022/03/14 06:56:57;;;;;;;3.72;1.90;;;;;;;;;;5074227;28;20225;-19
2022/03/14 06:59:24;;;;;;;1.90;1.50;;;;;;;;;;5074139;28;20295;-19
2022/03/14 07:01:51;;;;;;;1.58;1.48;;;;;;;;;;5072852;28;20240;-19
2022/03/14 07:04:18;;;;;;;2.25;1.90;;;;;;;;;;5074163;28;20970;-19
2022/03/14 07:06:45;;;;;;;2.05;1.83;;;;;;;;;;5068450;28;20671;-19
2022/03/14 07:09:12;;;;;;;2.33;1.88;;;;;;;;;;5053791;28;20230;-19
2022/03/14 07:11:39;;;;;;;2.40;2.15;;;;;;;;;;5058232;28;20244;-19
2022/03/14 07:14:06;;;;;;;2.72;2.08;;;;;;;;;;5073668;28;20829;-19
2022/03/14 07:16:33;;;;;;;2.45;2.22;;;;;;;;;;5073310;28;20234;-19
2022/03/14 07:19:01;;;;;;;2.97;2.30;;;;;;;;;;5067031;28;20229;-19
2022/03/14 07:21:28;;;;;;;3.75;2.42;;;;;;;;;;5053348;28;20254;-19
2022/03/14 07:23:55;;;;;;;2.60;2.40;;;;;;;;;;5068089;28;20279;-19
2022/03/14 07:26:22;;;;;;;3.22;2.50;;;;;;;;;;5073644;28;20997;-19
2022/03/14 07:28:49;;;;;;;5.68;2.30;;;;;;;;;;5073662;28;20225;-19
2022/03/14 07:31:17;;;;;;;5.18;2.28;;;;;;;;;;5069601;28;20712;-19
2022/03/14 07:33:44;;;;;;;3.08;2.20;;;;;;;;;;5072958;28;20284;-19
2022/03/14 07:36:11;;;;;;;3.72;2.80;;;;;;;;;;5070386;28;20233;-19
2022/03/14 07:38:38;;;;;;;3.90;2.67;;;;;;;;;;5070004;28;20244;-19
2022/03/14 07:41:05;;;;;;;5.38;2.92;;;;;;;;;;5072016;28;20233;-18
2022/03/14 07:43:32;;;;;;;3.50;2.50;;;;;;;;;;5069179;28;20232;-20
2022/03/14 07:45:59;;;;;;;3.22;2.90;;;;;;;;;;5072646;28;20225;-18
2022/03/14 07:48:27;;;;;;;3.33;3.03;;;;;;;;;;5072760;28;20225;-18
2022/03/14 07:50:54;;;;;;;3.90;2.83;;;;;;;;;;5072598;28;20234;-20
2022/03/14 07:53:22;;;;;;;3.90;3.30;;;;;;;;;;5072067;28;20228;-20
2022/03/14 07:55:49;;;;;;;3.50;3.20;;;;;;;;;;5071240;28;20233;-20
2022/03/14 07:58:16;;;;;;;4.50;3.65;;;;;;;;;;5071836;28;20627;-20
2022/03/14 08:00:43;;;;;;;3.60;2.95;;;;;;;;;;5068884;28;20747;-20
2022/03/14 08:03:10;;;;;;;3.95;3.10;;;;;;;;;;5072892;28;20245;-21
2022/03/14 08:05:37;;;;;;;3.53;3.00;;;;;;;;;;5072404;28;20233;-20
2022/03/14 08:08:08;;;;;;;4.35;3.03;;;;;;;;;;5070092;28;20237;-20
2022/03/14 08:10:39;;;;;;;3.85;3.03;;;;;;;;;;5072617;28;20267;-19
2022/03/14 08:13:06;;;;;;;4.10;3.50;;;;;;;;;;5072388;28;20233;-20
2022/03/14 08:15:33;;;;;;;3.63;3.22;;;;;;;;;;5068409;28;20226;-20
2022/03/14 08:18:00;;;;;;;3.85;3.45;;;;;;;;;;5064613;28;20229;-20
2022/03/14 08:20:27;;;;;;;5.47;3.60;;;;;;;;;;5063455;28;20249;-20
2022/03/14 08:22:54;;;;;;;10.05;3.53;;;;;;;;;;5071113;28;20726;-20
2022/03/14 08:25:21;;;;;;;9.43;3.33;;;;;;;;;;5071667;28;20688;-20
2022/03/14 08:27:48;;;;;;;6.13;3.60;;;;;;;;;;5072488;28;20626;-20
2022/03/14 08:30:15;;;;;;;17.92;3.95;;;;;;;;;;5071249;28;20238;-20
2022/03/14 08:32:43;;;;;;;12.45;3.92;;;;;;;;;;5061865;28;20430;-20
2022/03/14 08:35:10;;;;;;;9.82;4.10;;;;;;;;;;5069926;28;20265;-20
2022/03/14 08:37:40;;;;;;;5.28;4.15;;;;;;;;;;5072586;28;20320;-20
2022/03/14 08:40:08;;;;;;;9.35;5.18;;;;;;;;;;5064070;28;20238;-20
2022/03/14 08:42:35;;;;;;;8.98;4.72;;;;;;;;;;5053772;28;20230;-20
2022/03/14 08:45:02;;;;;;;10.00;4.82;;;;;;;;;;5071067;28;20443;-20
2022/03/14 08:47:29;;;;;;;7.55;5.22;;;;;;;;;;5071279;28;20229;-20
2022/03/14 08:49:56;;;;;;;7.40;4.70;;;;;;;;;;5065142;28;20221;-20
2022/03/14 08:52:25;;;;;;;6.40;5.05;;;;;;;;;;5072920;28;20232;-20
2022/03/14 08:54:51;;;;;;;9.65;5.15;;;;;;;;;;5071355;28;20234;-20
2022/03/14 08:57:18;;;;;;;8.77;5.20;;;;;;;;;;5071655;28;20229;-20
2022/03/14 08:59:45;;;;;;;7.68;5.03;;;;;;;;;;5071408;28;20908;-20
2022/03/14 09:02:12;;;;;;;11.70;4.70;;;;;;;;;;5065301;28;20944;-19
2022/03/14 09:04:41;;;;;;;11.98;4.85;;;;;;;;;;5066708;28;20267;-18
2022/03/14 09:07:08;;;;;;;7.93;4.70;;;;;;;;;;5056417;28;20497;-21
2022/03/14 09:09:35;;;;;;;8.23;4.38;;;;;;;;;;5063939;28;20234;-21
2022/03/14 09:12:02;;;;;;;8.02;4.75;;;;;;;;;;5059645;28;20244;-19
2022/03/14 09:14:31;;;;;;;7.40;5.28;;;;;;;;;;5061297;28;20236;-19
2022/03/14 09:16:58;;;;;;;5.22;4.68;;;;;;;;;;5058506;28;20260;-18
2022/03/14 09:19:27;;;;;;;9.82;5.50;;;;;;;;;;5052404;28;20241;-19
2022/03/14 09:21:56;;;;;;;7.47;5.28;;;;;;;;;;5050713;28;20419;-18
2022/03/14 09:24:24;;;;;;;7.38;5.18;;;;;;;;;;5050140;28;20233;-18
2022/03/14 09:26:51;;;;;;;7.93;5.82;;;;;;;;;;5066247;28;20790;-19
2022/03/14 09:29:18;;;;;;;7.30;6.07;;;;;;;;;;5055326;28;20740;-18
2022/03/14 09:31:45;;;;;;;9.60;5.97;;;;;;;;;;5062837;28;20320;-19
2022/03/14 09:34:12;;;;;;;10.32;6.38;;;;;;;;;;5059102;28;20221;-18
2022/03/14 09:36:39;;;;;;;8.95;6.30;;;;;;;;;;5059081;28;20229;-22
2022/03/14 09:39:06;;;;;;;15.52;7.35;;;;;;;;;;5059159;28;20448;-21
2022/03/14 09:41:33;;;;;;;10.77;7.28;;;;;;;;;;5059622;28;20237;-21
2022/03/14 09:44:00;;;;;;;9.07;7.10;;;;;;;;;;5059133;28;20244;-21
2022/03/14 09:46:27;;;;;;;10.48;7.57;;;;;;;;;;5057033;28;20417;-20
2022/03/14 09:48:54;;;;;;;11.60;7.50;;;;;;;;;;5061282;28;20415;-20
2022/03/14 09:51:21;;;;;;;12.18;7.47;;;;;;;;;;5052019;28;20439;-20
2022/03/14 09:53:49;;;;;;;12.65;6.80;;;;;;;;;;5065800;28;20240;-20
2022/03/14 09:56:16;;;;;;;13.82;6.97;;;;;;;;;;5059347;28;20233;-20
2022/03/14 09:58:44;;;;;;;11.93;7.20;;;;;;;;;;5058423;28;20237;-20
2022/03/14 10:01:11;;;;;;;12.77;6.25;;;;;;;;;;5063813;28;20241;-21
2022/03/14 10:03:39;;;;;;;14.25;6.22;;;;;;;;;;5049946;28;20229;-21
2022/03/14 10:06:06;;;;;;;10.25;6.22;;;;;;;;;;5056409;28;20329;-21
2022/03/14 10:08:33;;;;;;;10.45;5.72;;;;;;;;;;5054439;28;20240;-21
2022/03/14 10:11:00;;;;;;;13.70;6.45;;;;;;;;;;5053615;28;20703;-20
2022/03/14 10:13:40;;;;;;;11.00;7.07;;;;;;;;;;5058058;28;20437;-21
2022/03/14 10:16:07;;;;;;;9.30;6.90;;;;;;;;;;5061604;28;20232;-21
2022/03/14 10:18:34;;;;;;;12.30;6.82;;;;;;;;;;5053421;28;20575;-21
2022/03/14 10:21:06;;;;;;;18.38;7.30;;;;;;;;;;5053407;28;20245;-21
2022/03/14 10:23:33;;;;;;;10.48;7.55;;;;;;;;;;5057605;28;20225;-21
2022/03/14 10:26:00;;;;;;;13.15;7.88;;;;;;;;;;5055572;28;20238;-21
2022/03/14 10:28:27;;;;;;;12.68;8.73;;;;;;;;;;5063893;28;20240;-21
2022/03/14 10:30:54;;;;;;;10.52;7.80;;;;;;;;;;5064023;28;20740;-20
2022/03/14 10:33:23;;;;;;;13.63;8.30;;;;;;;;;;5061892;28;20364;-20
2022/03/14 10:35:55;;;;;;;11.30;8.75;;;;;;;;;;5059227;28;20236;-21
2022/03/14 10:38:22;;;;;;;11.57;8.70;;;;;;;;;;5052455;28;20243;-21
2022/03/14 10:40:50;;;;;;;12.57;8.25;;;;;;;;;;5052788;28;20257;-22
2022/03/14 10:43:26;;;;;;;12.65;8.48;;;;;;;;;;5052891;28;20704;-21
2022/03/14 10:45:53;;;;;;;11.32;8.00;;;;;;;;;;5051566;28;20229;-21
2022/03/14 10:48:20;;;;;;;12.10;9.30;;;;;;;;;;5062285;28;20483;-21
2022/03/14 10:50:47;;;;;;;13.00;8.85;;;;;;;;;;5061624;28;20238;-22
2022/03/14 10:53:14;;;;;;;11.18;8.43;;;;;;;;;;5050849;28;20244;-21
2022/03/14 10:55:41;;;;;;;11.20;8.90;;;;;;;;;;5053392;28;20237;-22
2022/03/14 10:58:08;;;;;;;14.65;9.13;;;;;;;;;;5058787;28;21254;-21
2022/03/14 11:00:35;;;;;;;12.68;8.77;;;;;;;;;;5055669;28;20252;-21
2022/03/14 11:03:03;;;;;;;9.15;8.10;;;;;;;;;;5064864;28;20225;-22
2022/03/14 11:05:30;;;;;;;10.98;8.10;;;;;;;;;;5057524;28;20763;-21
2022/03/14 11:07:57;;;;;;;10.40;8.15;;;;;;;;;;5059629;28;20240;-21
2022/03/14 11:10:24;;;;;;;15.10;9.37;;;;;;;;;;5055195;28;20517;-21
2022/03/14 11:12:51;;;;;;;22.63;9.60;;;;;;;;;;5053519;28;20998;-21
2022/03/14 11:15:18;;;;;;;17.38;8.35;;;;;;;;;;5055885;28;20229;-21
2022/03/14 11:17:45;;;;;;;34.28;10.05;;;;;;;;;;5066165;28;20234;-22
2022/03/14 11:20:31;;;;;;;24.30;8.98;;;;;;;;;;5056553;28;20242;-22
2022/03/14 11:22:58;;;;;;;17.10;8.98;;;;;;;;;;5056595;28;20237;-21
2022/03/14 11:25:25;;;;;;;19.08;8.90;;;;;;;;;;5062663;28;20237;-21
2022/03/14 11:27:53;;;;;;;13.50;8.32;;;;;;;;;;5054284;28;20245;-21
2022/03/14 11:30:20;;;;;;;14.80;8.57;;;;;;;;;;5058343;28;20232;-21
2022/03/14 11:32:47;;;;;;;11.63;8.80;;;;;;;;;;5053788;28;20233;-21
2022/03/14 11:35:14;;;;;;;17.38;8.50;;;;;;;;;;5054127;28;20230;-20
2022/03/14 11:37:42;;;;;;;13.13;8.88;;;;;;;;;;5063437;28;20244;-21
2022/03/14 11:40:09;;;;;;;17.50;9.25;;;;;;;;;;5061030;28;20512;-21
2022/03/14 11:42:36;;;;;;;17.55;8.70;;;;;;;;;;5060466;28;20233;-21
2022/03/14 11:45:06;;;;;;;18.75;10.73;;;;;;;;;;5057222;28;20230;-20
2022/03/14 11:47:33;;;;;;;21.95;11.10;;;;;;;;;;5061065;28;20325;-20
2022/03/14 11:50:00;;;;;;;20.45;11.57;;;;;;;;;;5063760;28;20695;-20
2022/03/14 11:52:27;;;;;;;22.90;11.82;;;;;;;;;;5060767;28;20230;-20
2022/03/14 11:54:57;;;;;;;21.38;12.13;;;;;;;;;;5060916;28;20423;-20
2022/03/14 11:57:24;;;;;;;15.65;10.68;;;;;;;;;;5059353;28;20233;-20
2022/03/14 11:59:51;;;;;;;16.45;10.80;;;;;;;;;;5062624;28;20245;-20
2022/03/14 12:02:18;;;;;;;21.05;11.70;;;;;;;;;;5064342;28;20235;-20
2022/03/14 12:04:46;;;;;;;14.57;10.82;;;;;;;;;;5065070;28;20356;-21
2022/03/14 12:07:13;;;;;;;15.77;9.65;;;;;;;;;;5063424;28;20297;-19
2022/03/14 12:09:45;;;;;;;17.77;10.57;;;;;;;;;;5059896;28;20265;-19
2022/03/14 12:12:12;;;;;;;14.10;9.55;;;;;;;;;;5065456;28;21071;-19
2022/03/14 12:14:39;;;;;;;17.77;10.30;;;;;;;;;;5053853;28;20415;-19
2022/03/14 12:17:06;;;;;;;22.42;10.25;;;;;;;;;;5063307;28;20249;-19
2022/03/14 12:19:36;;;;;;;13.98;10.82;;;;;;;;;;5056508;28;20498;-19
2022/03/14 12:22:03;;;;;;;17.80;10.75;;;;;;;;;;5064464;28;20242;-19
2022/03/14 12:24:30;;;;;;;16.45;11.88;;;;;;;;;;5048713;28;20440;-19
2022/03/14 12:26:57;;;;;;;19.25;11.45;;;;;;;;;;5060866;28;20238;-19
2022/03/14 12:29:24;;;;;;;19.52;12.38;;;;;;;;;;5058716;28;20237;-19
2022/03/14 12:31:51;;;;;;;18.63;11.52;;;;;;;;;;5056826;28;20233;-19
2022/03/14 12:34:18;;;;;;;19.65;12.00;;;;;;;;;;5051325;28;20229;-19
2022/03/14 12:36:55;;;;;;;14.00;11.02;;;;;;;;;;5056418;28;20233;-19
2022/03/14 12:39:22;;;;;;;14.20;10.30;;;;;;;;;;5057821;28;20237;-19
2022/03/14 12:41:50;;;;;;;12.98;10.50;;;;;;;;;;5065730;28;20292;-19
2022/03/14 12:44:17;;;;;;;16.73;11.00;;;;;;;;;;5065828;28;20249;-19
2022/03/14 12:46:44;;;;;;;16.15;9.80;;;;;;;;;;5059586;28;20240;-19
2022/03/14 12:49:11;;;;;;;10.93;9.23;;;;;;;;;;5065941;28;20265;-19
2022/03/14 12:51:39;;;;;;;13.02;9.25;;;;;;;;;;5056411;28;20225;-19
2022/03/14 12:54:06;;;;;;;11.10;8.70;;;;;;;;;;5048336;28;20245;-19
2022/03/14 12:56:33;;;;;;;11.98;9.07;;;;;;;;;;5051734;28;20234;-19
2022/03/14 12:59:00;;;;;;;11.80;8.63;;;;;;;;;;5064936;28;20237;-19
2022/03/14 13:01:27;;;;;;;14.95;8.70;;;;;;;;;;5062853;28;20237;-20
2022/03/14 13:03:54;;;;;;;13.43;8.10;;;;;;;;;;5061394;28;20256;-19
2022/03/14 13:06:21;;;;;;;11.07;7.95;;;;;;;;;;5050072;28;20234;-19
2022/03/14 13:08:48;;;;;;;9.98;7.13;;;;;;;;;;5059676;28;20233;-19
2022/03/14 13:11:17;;;;;;;9.13;6.57;;;;;;;;;;5054569;28;20230;-19
2022/03/14 13:13:47;;;;;;;10.30;7.18;;;;;;;;;;5064561;28;20254;-19
2022/03/14 13:16:14;;;;;;;8.70;6.68;;;;;;;;;;5054975;28;20237;-19
2022/03/14 13:18:43;;;;;;;9.23;6.82;;;;;;;;;;5052645;28;20716;-19
2022/03/14 13:21:11;;;;;;;10.98;6.22;;;;;;;;;;5054019;28;20245;-20
2022/03/14 13:23:38;;;;;;;10.10;6.40;;;;;;;;;;5056447;28;20996;-19
2022/03/14 13:26:05;;;;;;;8.52;6.25;;;;;;;;;;5060377;28;20233;-19
2022/03/14 13:28:32;;;;;;;12.45;6.57;;;;;;;;;;5055411;28;20265;-19
2022/03/14 13:30:59;;;;;;;10.93;6.50;;;;;;;;;;5058300;28;20230;-19
2022/03/14 13:33:27;;;;;;;9.70;6.25;;;;;;;;;;5064755;28;20237;-19
2022/03/14 13:35:54;;;;;;;11.23;6.47;;;;;;;;;;5058786;28;20461;-19
2022/03/14 13:38:21;;;;;;;12.93;6.07;;;;;;;;;;5057672;28;20238;-19
2022/03/14 13:40:48;;;;;;;18.92;6.50;;;;;;;;;;5061934;28;20445;-19
2022/03/14 13:43:15;;;;;;;16.08;6.25;;;;;;;;;;5059599;28;20229;-19
2022/03/14 13:45:42;;;;;;;16.85;6.50;;;;;;;;;;5058832;28;20422;-19
2022/03/14 13:48:09;;;;;;;8.90;6.20;;;;;;;;;;5062704;28;20244;-19
2022/03/14 13:50:36;;;;;;;9.90;6.47;;;;;;;;;;5049686;28;21475;-19
2022/03/14 13:53:03;;;;;;;12.95;6.03;;;;;;;;;;5055563;28;20606;-19
2022/03/14 13:55:31;;;;;;;8.70;5.60;;;;;;;;;;5053890;28;20245;-20
2022/03/14 13:57:59;;;;;;;8.40;5.75;;;;;;;;;;5049390;28;20245;-19
2022/03/14 14:00:28;;;;;;;11.10;5.07;;;;;;;;;;5055591;28;20241;-19
2022/03/14 14:02:55;;;;;;;14.48;5.82;;;;;;;;;;5049938;28;20230;-19
2022/03/14 14:05:23;;;;;;;22.70;6.88;;;;;;;;;;5055514;28;20237;-19
2022/03/14 14:07:50;;;;;;;23.45;6.22;;;;;;;;;;5055587;28;20230;-19
2022/03/14 14:10:18;;;;;;;16.33;5.53;;;;;;;;;;5054461;28;20445;-18
2022/03/14 14:12:46;;;;;;;14.30;5.35;;;;;;;;;;5054811;28;20229;-19
2022/03/14 14:15:13;;;;;;;15.30;5.82;;;;;;;;;;5049951;28;20237;-19
2022/03/14 14:17:40;;;;;;;16.55;5.43;;;;;;;;;;5063516;28;20444;-19
2022/03/14 14:20:07;;;;;;;15.80;5.25;;;;;;;;;;5059578;28;20443;-19
2022/03/14 14:22:34;;;;;;;15.20;5.28;;;;;;;;;;5056677;28;20238;-19
2022/03/14 14:25:01;;;;;;;19.67;5.32;;;;;;;;;;5059369;28;20361;-20
2022/03/14 14:27:28;;;;;;;11.85;4.57;;;;;;;;;;5058547;28;20240;-20
2022/03/14 14:29:55;;;;;;;17.65;4.68;;;;;;;;;;5063841;28;20723;-19
2022/03/14 14:32:22;;;;;;;13.77;4.40;;;;;;;;;;5055040;28;20231;-20
2022/03/14 14:34:50;;;;;;;12.52;4.28;;;;;;;;;;5067919;28;20922;-19
2022/03/14 14:37:18;;;;;;;10.57;4.00;;;;;;;;;;5064716;28;20245;-19
2022/03/14 14:39:45;;;;;;;12.27;3.85;;;;;;;;;;5063015;28;20235;-19